Time;durP1;ratioP1;P1;durP2;ratioP2;P2;SDS_P1;SDS_P2;PMS_P1;PMS_P2;Temp;Humidity;BMP_temperature;BMP_pressure;BME280_temperature;BME280_humidity;BME280_pressure;Samples;Min_cycle;Max_cycle;Signal;HPM_P1;HPM_P2
2021/12/31 00:00:26;;;;;;;8.15;1.63;;;13.60;99.90;;;;;;5013611;28;20516;-59
2021/12/31 00:02:51;;;;;;;4.00;1.45;;;13.60;99.90;;;;;;5013258;28;20029;-59
2021/12/31 00:05:17;;;;;;;3.33;1.05;;;13.50;99.90;;;;;;5013287;28;20026;-59
2021/12/31 00:07:45;;;;;;;6.88;1.30;;;13.50;99.90;;;;;;5013615;28;20022;-57
2021/12/31 00:10:10;;;;;;;4.10;1.30;;;13.40;99.90;;;;;;5014477;28;20022;-56
2021/12/31 00:12:36;;;;;;;2.70;1.30;;;13.40;99.90;;;;;;5014315;28;20045;-58
2021/12/31 00:15:03;;;;;;;3.67;1.30;;;13.50;99.90;;;;;;5014322;28;20076;-57
2021/12/31 00:17:28;;;;;;;6.68;2.20;;;13.50;99.90;;;;;;5014176;28;20030;-56
2021/12/31 00:20:02;;;;;;;2.30;1.35;;;13.50;99.90;;;;;;5013000;28;20105;-59
2021/12/31 00:23:05;;;;;;;3.30;1.05;;;13.50;99.90;;;;;;5013248;28;20032;-54
2021/12/31 00:25:32;;;;;;;4.00;1.20;;;13.50;99.90;;;;;;5014185;28;20026;-56
2021/12/31 00:27:58;;;;;;;2.42;1.50;;;13.60;99.90;;;;;;5013077;28;20056;-59
2021/12/31 00:30:24;;;;;;;6.25;1.75;;;13.60;99.90;;;;;;5014170;28;20030;-59
2021/12/31 00:32:50;;;;;;;10.43;2.08;;;13.60;99.90;;;;;;5012888;28;20026;-58
2021/12/31 00:35:16;;;;;;;3.05;1.20;;;13.60;99.90;;;;;;5013463;28;20030;-57
2021/12/31 00:37:42;;;;;;;2.92;1.30;;;13.60;99.90;;;;;;5013119;28;20025;-58
2021/12/31 00:40:11;;;;;;;4.07;1.17;;;13.60;99.90;;;;;;5014042;28;20022;-54
2021/12/31 00:42:37;;;;;;;3.10;1.30;;;13.60;99.90;;;;;;5013835;28;20026;-58
2021/12/31 00:45:05;;;;;;;2.10;1.25;;;13.60;99.90;;;;;;5011934;28;20022;-55
2021/12/31 00:47:31;;;;;;;3.35;1.75;;;13.60;99.90;;;;;;5012653;28;20125;-56
2021/12/31 00:49:56;;;;;;;4.15;1.60;;;13.60;99.90;;;;;;5012617;28;20541;-58
2021/12/31 00:52:22;;;;;;;7.50;1.73;;;13.60;99.90;;;;;;5012539;28;20033;-53
2021/12/31 00:54:47;;;;;;;7.13;1.85;;;13.60;99.90;;;;;;5012596;28;20485;-54
2021/12/31 00:57:13;;;;;;;5.15;2.30;;;13.60;99.90;;;;;;5012412;28;20022;-57
2021/12/31 01:03:00;;;;;;;6.03;1.50;;;13.60;99.90;;;;;;5013712;28;20077;-56
2021/12/31 01:05:26;;;;;;;4.35;1.80;;;13.60;99.90;;;;;;5012444;28;20097;-52
2021/12/31 01:07:52;;;;;;;4.50;1.40;;;13.60;99.90;;;;;;5013586;28;20057;-57
2021/12/31 01:10:19;;;;;;;5.57;1.45;;;13.60;99.90;;;;;;5013604;28;20085;-53
2021/12/31 01:12:45;;;;;;;6.00;1.70;;;13.60;99.90;;;;;;5013631;28;20030;-56
2021/12/31 01:15:36;;;;;;;4.45;1.35;;;13.60;99.90;;;;;;5012654;28;20056;-57
2021/12/31 01:20:26;;;;;;;3.50;1.40;;;13.60;99.90;;;;;;5013962;28;20026;-56
2021/12/31 01:22:52;;;;;;;1.80;1.25;;;13.60;99.90;;;;;;5013416;28;20469;-50
2021/12/31 01:25:18;;;;;;;5.93;1.50;;;13.60;99.90;;;;;;5013302;28;20040;-50
2021/12/31 01:27:44;;;;;;;3.92;1.67;;;13.60;99.90;;;;;;5027328;28;20096;-50
2021/12/31 01:30:13;;;;;;;2.90;1.20;;;13.60;99.90;;;;;;5033247;28;20021;-50
2021/12/31 01:32:41;;;;;;;8.52;1.50;;;13.70;99.90;;;;;;5031903;28;20026;-53
2021/12/31 01:35:07;;;;;;;4.78;1.45;;;13.60;99.90;;;;;;5032140;28;20041;-51
2021/12/31 01:37:33;;;;;;;3.10;1.30;;;13.60;99.90;;;;;;5032587;28;20026;-49
2021/12/31 01:39:59;;;;;;;5.97;1.25;;;13.60;99.90;;;;;;5031803;28;20028;-54
2021/12/31 01:42:30;;;;;;;3.70;1.15;;;13.70;99.90;;;;;;5031853;28;20028;-51
2021/12/31 01:45:00;;;;;;;;;;;13.70;99.90;;;;;;5032296;28;20018;-52
2021/12/31 01:47:34;;;;;;;3.33;1.52;;;13.70;99.90;;;;;;5032637;28;19951;-49
2021/12/31 01:50:06;;;;;;;4.25;1.58;;;13.60;99.90;;;;;;5031804;28;20034;-52
2021/12/31 01:52:34;;;;;;;3.10;1.63;;;13.60;99.90;;;;;;5031635;28;20484;-52
2021/12/31 01:55:01;;;;;;;3.63;1.38;;;13.70;99.90;;;;;;5031645;28;20101;-54
2021/12/31 01:57:28;;;;;;;4.63;1.42;;;13.70;99.90;;;;;;5035347;28;20092;-51
2021/12/31 01:59:54;;;;;;;3.35;1.30;;;13.70;99.90;;;;;;5036723;28;20017;-51
2021/12/31 02:02:20;;;;;;;6.28;1.08;;;13.70;99.90;;;;;;5036585;28;20096;-52
2021/12/31 02:04:45;;;;;;;4.97;1.30;;;13.70;99.90;;;;;;5035316;28;20056;-52
2021/12/31 02:07:11;;;;;;;4.90;1.30;;;13.80;99.90;;;;;;5036533;28;20029;-54
2021/12/31 02:09:45;;;;;;;5.90;1.30;;;13.70;99.90;;;;;;5035655;28;20018;-50
2021/12/31 02:12:11;;;;;;;4.55;1.23;;;13.70;99.90;;;;;;5036830;28;20025;-54
2021/12/31 02:14:37;;;;;;;6.05;1.35;;;13.60;99.90;;;;;;5036237;28;20112;-53
2021/12/31 02:17:07;;;;;;;4.97;1.40;;;13.60;99.90;;;;;;5035046;28;20380;-49
2021/12/31 02:19:34;;;;;;;5.88;2.45;;;13.60;99.90;;;;;;5035155;28;20034;-52
2021/12/31 02:22:00;;;;;;;8.60;2.63;;;13.60;99.90;;;;;;5035431;28;20027;-52
2021/12/31 02:24:26;;;;;;;5.28;2.30;;;13.60;99.90;;;;;;5035040;28;20099;-50
2021/12/31 02:26:52;;;;;;;4.82;1.55;;;13.60;99.90;;;;;;5036060;28;20018;-49
2021/12/31 02:29:18;;;;;;;2.78;1.30;;;13.60;99.90;;;;;;5036204;28;20033;-51
2021/12/31 02:31:45;;;;;;;2.90;1.33;;;13.60;99.90;;;;;;5036191;28;20060;-53
2021/12/31 02:34:11;;;;;;;11.20;1.70;;;13.60;99.90;;;;;;5036138;28;20048;-49
2021/12/31 02:36:37;;;;;;;5.90;1.20;;;13.60;99.90;;;;;;5034771;28;20163;-55
2021/12/31 02:39:03;;;;;;;6.07;1.35;;;13.60;99.90;;;;;;5035935;28;20025;-54
2021/12/31 02:41:29;;;;;;;3.78;1.52;;;13.60;99.90;;;;;;5035016;28;20025;-54
2021/12/31 02:43:55;;;;;;;6.93;1.90;;;13.60;99.90;;;;;;5036249;28;20030;-54
2021/12/31 02:46:21;;;;;;;4.13;1.33;;;13.70;99.90;;;;;;5035867;28;20017;-52
2021/12/31 02:48:55;;;;;;;2.67;1.30;;;13.60;99.90;;;;;;5035881;28;20053;-54
2021/12/31 02:51:21;;;;;;;4.85;1.23;;;13.60;99.90;;;;;;5035138;28;20041;-53
2021/12/31 02:53:52;;;;;;;10.48;1.30;;;13.60;99.90;;;;;;5034488;28;20116;-50
2021/12/31 02:56:18;;;;;;;5.63;1.10;;;13.60;99.90;;;;;;5034650;28;20480;-49
2021/12/31 02:58:44;;;;;;;1.77;1.00;;;13.60;99.90;;;;;;5034629;28;20034;-49
2021/12/31 03:01:12;;;;;;;5.70;1.90;;;13.60;99.90;;;;;;5034323;28;20108;-49
2021/12/31 03:03:39;;;;;;;8.70;1.75;;;13.60;99.90;;;;;;5034283;28;20032;-49
2021/12/31 03:06:05;;;;;;;4.55;1.77;;;13.60;99.90;;;;;;5034331;28;20089;-52
2021/12/31 03:08:35;;;;;;;3.47;1.40;;;13.50;99.90;;;;;;5034967;28;20049;-50
2021/12/31 03:11:03;;;;;;;4.03;1.30;;;13.50;99.90;;;;;;5034264;28;20021;-50
2021/12/31 03:13:29;;;;;;;5.25;1.25;;;13.60;99.90;;;;;;5034073;28;20032;-50
2021/12/31 03:15:55;;;;;;;3.60;1.20;;;13.50;99.90;;;;;;5034063;28;20021;-51
2021/12/31 03:18:22;;;;;;;4.88;1.80;;;13.50;99.90;;;;;;5035386;28;20108;-51
2021/12/31 03:23:42;;;;;;;2.35;0.95;;;13.60;99.90;;;;;;5026835;28;20030;-49
2021/12/31 03:26:08;;;;;;;3.80;1.35;;;13.60;99.90;;;;;;5034927;28;20029;-54
2021/12/31 03:28:33;;;;;;;2.70;1.30;;;13.60;99.90;;;;;;5014775;28;20018;-50
2021/12/31 03:30:59;;;;;;;10.80;2.13;;;13.60;99.90;;;;;;5015513;28;20155;-50
2021/12/31 03:33:25;;;;;;;4.43;1.20;;;13.60;99.90;;;;;;5014874;28;20028;-49
2021/12/31 03:35:50;;;;;;;4.50;0.98;;;13.60;99.90;;;;;;5015314;28;20033;-55
2021/12/31 03:38:16;;;;;;;3.35;1.20;;;13.60;99.90;;;;;;5013722;28;20037;-51
2021/12/31 03:40:42;;;;;;;2.22;1.30;;;13.60;99.90;;;;;;5013900;28;20022;-55
2021/12/31 03:43:08;;;;;;;3.88;1.00;;;13.60;99.90;;;;;;5015269;28;20095;-54
2021/12/31 03:45:35;;;;;;;3.97;1.23;;;13.60;99.90;;;;;;5015435;28;20026;-52
2021/12/31 03:48:01;;;;;;;2.92;0.95;;;13.60;99.90;;;;;;5014905;28;20030;-52
2021/12/31 03:50:26;;;;;;;3.92;1.20;;;13.50;99.90;;;;;;5013734;28;20032;-54
2021/12/31 03:52:52;;;;;;;2.38;1.25;;;13.50;99.90;;;;;;5013609;28;20030;-54
2021/12/31 03:55:19;;;;;;;1.80;1.10;;;13.50;99.90;;;;;;5015028;28;20108;-53
2021/12/31 03:57:44;;;;;;;2.78;1.00;;;13.40;99.90;;;;;;5014578;28;20077;-53
2021/12/31 04:00:11;;;;;;;2.95;1.30;;;13.40;99.90;;;;;;5013923;28;20018;-50
2021/12/31 04:02:37;;;;;;;4.45;1.20;;;13.40;99.90;;;;;;5013454;28;20117;-52
2021/12/31 04:05:03;;;;;;;5.45;1.40;;;13.40;99.90;;;;;;5014605;28;20018;-50
2021/12/31 04:07:29;;;;;;;2.67;0.80;;;13.40;99.90;;;;;;5014431;28;20026;-50
2021/12/31 04:09:55;;;;;;;2.13;0.95;;;13.30;99.90;;;;;;5014849;28;20080;-52
2021/12/31 04:12:20;;;;;;;6.03;1.80;;;13.30;99.90;;;;;;5014133;28;20050;-52
2021/12/31 04:14:46;;;;;;;9.77;1.20;;;13.30;99.90;;;;;;5013224;28;20022;-52
2021/12/31 04:17:11;;;;;;;2.53;1.27;;;13.30;99.90;;;;;;5013445;28;20056;-53
2021/12/31 04:19:37;;;;;;;5.82;1.17;;;13.30;99.90;;;;;;5013292;28;20029;-53
2021/12/31 04:22:04;;;;;;;8.88;1.63;;;13.30;99.90;;;;;;5013182;28;20033;-55
2021/12/31 04:27:11;;;;;;;2.85;1.20;;;13.40;99.90;;;;;;5014163;28;20026;-53
2021/12/31 04:29:37;;;;;;;10.05;1.67;;;13.40;99.90;;;;;;5013808;28;20030;-53
2021/12/31 04:32:03;;;;;;;4.50;0.93;;;13.40;99.90;;;;;;5012934;28;20511;-49
2021/12/31 04:34:29;;;;;;;7.32;0.95;;;13.40;99.90;;;;;;5014118;28;20026;-48
2021/12/31 04:36:55;;;;;;;3.55;1.33;;;13.50;99.90;;;;;;5014005;28;20117;-49
2021/12/31 04:39:21;;;;;;;4.57;0.98;;;13.60;99.90;;;;;;5014003;28;20101;-52
2021/12/31 04:41:47;;;;;;;3.03;1.17;;;13.60;99.90;;;;;;5013659;28;20481;-49
2021/12/31 04:44:12;;;;;;;4.20;1.15;;;13.60;99.90;;;;;;5013326;28;20060;-52
2021/12/31 04:46:38;;;;;;;2.85;1.00;;;13.60;99.90;;;;;;5014093;28;20057;-51
2021/12/31 04:49:04;;;;;;;5.63;1.05;;;13.60;99.90;;;;;;5013990;28;20053;-49
2021/12/31 04:51:29;;;;;;;3.25;0.75;;;13.60;99.90;;;;;;5012581;28;20073;-48
2021/12/31 04:53:55;;;;;;;8.68;0.88;;;13.60;99.90;;;;;;5012534;28;20028;-49
2021/12/31 04:56:21;;;;;;;1.85;0.90;;;13.70;99.90;;;;;;5012494;28;20076;-49
2021/12/31 04:58:46;;;;;;;4.13;1.23;;;13.70;99.90;;;;;;5012479;28;20058;-51
2021/12/31 05:01:12;;;;;;;2.88;1.38;;;13.70;99.90;;;;;;5013713;28;20421;-48
2021/12/31 05:03:37;;;;;;;2.60;0.82;;;13.70;99.90;;;;;;5012441;28;20117;-49
2021/12/31 05:06:03;;;;;;;3.85;0.82;;;13.80;99.90;;;;;;5012388;28;20458;-49
2021/12/31 05:08:29;;;;;;;1.55;0.73;;;13.70;99.90;;;;;;5012984;28;20132;-49
2021/12/31 05:10:54;;;;;;;3.05;0.82;;;13.80;99.90;;;;;;5013639;28;20022;-50
2021/12/31 05:13:21;;;;;;;3.92;1.15;;;13.70;99.90;;;;;;5013871;28;20033;-49
2021/12/31 05:15:49;;;;;;;2.00;0.90;;;13.70;99.90;;;;;;5012368;28;20030;-49
2021/12/31 05:18:14;;;;;;;4.25;1.15;;;13.70;99.90;;;;;;5013468;28;20076;-50
2021/12/31 05:20:41;;;;;;;2.33;1.10;;;13.60;99.90;;;;;;5012342;28;20030;-49
2021/12/31 05:23:06;;;;;;;4.75;1.20;;;13.70;99.90;;;;;;5013534;28;20021;-50
2021/12/31 05:25:32;;;;;;;2.33;0.80;;;13.70;99.90;;;;;;5012284;28;20076;-50
2021/12/31 05:27:58;;;;;;;4.78;1.30;;;13.70;99.90;;;;;;5012441;28;20030;-52
2021/12/31 05:30:27;;;;;;;3.40;0.93;;;13.70;99.90;;;;;;5013863;28;20022;-52
2021/12/31 05:32:53;;;;;;;2.40;1.10;;;13.60;99.90;;;;;;5016244;28;20052;-49
2021/12/31 05:35:19;;;;;;;3.40;1.15;;;13.60;99.90;;;;;;5017401;28;20036;-51
2021/12/31 05:37:45;;;;;;;3.95;0.85;;;13.60;99.90;;;;;;5016006;28;20028;-49
2021/12/31 05:40:11;;;;;;;2.88;1.15;;;13.50;99.90;;;;;;5016225;28;20024;-51
2021/12/31 05:42:37;;;;;;;3.17;1.00;;;13.50;99.90;;;;;;5017328;28;20026;-52
2021/12/31 05:45:04;;;;;;;5.95;1.17;;;13.50;99.90;;;;;;5016338;28;20022;-49
2021/12/31 05:47:29;;;;;;;2.38;1.02;;;13.40;99.90;;;;;;5015797;28;20061;-51
2021/12/31 05:49:55;;;;;;;2.78;1.00;;;13.40;99.90;;;;;;5015899;28;20017;-49
2021/12/31 05:52:21;;;;;;;3.60;1.10;;;13.30;99.90;;;;;;5016253;28;20117;-49
2021/12/31 05:54:47;;;;;;;9.02;1.38;;;13.30;99.90;;;;;;5017042;28;20022;-50
2021/12/31 05:57:12;;;;;;;2.47;0.90;;;13.30;99.90;;;;;;5015667;28;20034;-51
2021/12/31 05:59:38;;;;;;;6.30;1.02;;;13.20;99.90;;;;;;5016075;28;20026;-49
2021/12/31 06:02:04;;;;;;;5.05;1.05;;;13.10;99.90;;;;;;5016520;28;20072;-49
2021/12/31 06:04:30;;;;;;;5.25;0.88;;;13.00;99.90;;;;;;5017493;28;20501;-51
2021/12/31 06:06:55;;;;;;;4.22;1.20;;;13.00;99.90;;;;;;5015820;28;20022;-51
2021/12/31 06:09:21;;;;;;;1.42;0.80;;;13.00;99.90;;;;;;5016693;28;20477;-51
2021/12/31 06:11:47;;;;;;;4.22;0.90;;;13.00;99.90;;;;;;5017041;28;20041;-54
2021/12/31 06:14:13;;;;;;;2.30;0.85;;;12.90;99.90;;;;;;5015451;28;20116;-52
2021/12/31 06:16:45;;;;;;;1.95;1.00;;;12.90;99.90;;;;;;5016625;28;20030;-50
2021/12/31 06:19:11;;;;;;;6.50;2.67;;;12.90;99.90;;;;;;5016580;28;20108;-50
2021/12/31 06:21:43;;;;;;;7.88;4.97;;;12.80;99.90;;;;;;5016529;28;20022;-50
2021/12/31 06:24:09;;;;;;;6.50;1.42;;;12.70;99.90;;;;;;5015743;28;20029;-49
2021/12/31 06:26:35;;;;;;;2.35;1.30;;;12.60;99.90;;;;;;5015472;28;20116;-50
2021/12/31 06:29:01;;;;;;;2.35;1.10;;;12.50;99.90;;;;;;5016335;28;20115;-50
2021/12/31 06:31:27;;;;;;;1.60;1.05;;;12.40;99.90;;;;;;5016676;28;20029;-52
2021/12/31 06:33:53;;;;;;;4.57;1.33;;;12.30;99.90;;;;;;5015116;28;20382;-52
2021/12/31 06:36:19;;;;;;;3.67;1.27;;;12.20;99.90;;;;;;5015001;28;20034;-52
2021/12/31 06:38:45;;;;;;;3.10;1.20;;;12.20;99.90;;;;;;5016149;28;20504;-52
2021/12/31 06:41:11;;;;;;;1.95;1.15;;;12.10;99.90;;;;;;5016265;28;20026;-51
2021/12/31 06:43:37;;;;;;;1.00;0.90;;;12.00;99.90;;;;;;5015294;28;20028;-49
2021/12/31 06:46:02;;;;;;;1.70;0.88;;;11.90;99.90;;;;;;5016377;28;20021;-54
2021/12/31 06:48:28;;;;;;;1.40;0.90;;;11.90;99.90;;;;;;5016026;28;20037;-51
2021/12/31 06:50:53;;;;;;;5.03;1.27;;;11.80;99.90;;;;;;5015026;28;20026;-49
2021/12/31 06:53:19;;;;;;;3.33;1.30;;;11.70;99.90;;;;;;5014780;28;20029;-49
2021/12/31 06:55:45;;;;;;;1.38;0.85;;;11.70;99.90;;;;;;5015528;28;20026;-53
2021/12/31 06:58:10;;;;;;;4.65;2.15;;;11.60;99.90;;;;;;5014462;28;20026;-51
2021/12/31 07:00:36;;;;;;;5.57;2.38;;;11.50;99.90;;;;;;5014752;28;20092;-54
2021/12/31 07:03:12;;;;;;;8.13;2.40;;;11.50;99.90;;;;;;5015828;28;20022;-50
2021/12/31 07:05:42;;;;;;;2.28;1.33;;;11.40;99.90;;;;;;5016097;28;20144;-54
2021/12/31 07:08:08;;;;;;;4.57;1.25;;;11.40;99.90;;;;;;5015062;28;20041;-54
2021/12/31 07:10:34;;;;;;;9.35;4.25;;;11.30;99.90;;;;;;5016078;28;20022;-55
2021/12/31 07:13:01;;;;;;;6.75;2.80;;;11.20;99.90;;;;;;5015641;28;20057;-55
2021/12/31 07:15:27;;;;;;;10.30;3.92;;;11.20;99.90;;;;;;5015570;28;20033;-54
2021/12/31 07:17:53;;;;;;;5.65;2.80;;;11.10;99.90;;;;;;5014600;28;20029;-52
2021/12/31 07:20:19;;;;;;;4.82;1.50;;;11.10;99.90;;;;;;5015469;28;20393;-52
2021/12/31 07:22:45;;;;;;;2.30;1.02;;;11.00;99.90;;;;;;5014522;28;20026;-53
2021/12/31 07:25:11;;;;;;;1.83;1.00;;;10.90;99.90;;;;;;5014174;28;20544;-53
2021/12/31 07:27:36;;;;;;;8.10;1.42;;;10.90;99.90;;;;;;5015184;28;20058;-50
2021/12/31 07:30:03;;;;;;;20.17;8.65;;;10.90;99.90;;;;;;5014917;28;20030;-50
2021/12/31 07:32:28;;;;;;;13.13;4.13;;;10.80;99.90;;;;;;5013980;28;20057;-49
2021/12/31 07:34:54;;;;;;;6.72;2.40;;;10.80;99.90;;;;;;5013948;28;20053;-55
2021/12/31 07:37:19;;;;;;;5.25;1.20;;;10.80;99.90;;;;;;5014554;28;20037;-53
2021/12/31 07:39:47;;;;;;;11.27;4.05;;;10.80;99.90;;;;;;5013827;28;20069;-52
2021/12/31 07:42:14;;;;;;;2.70;1.35;;;10.80;99.90;;;;;;5014108;28;20033;-51
2021/12/31 07:44:40;;;;;;;1.05;0.82;;;10.80;99.90;;;;;;5013852;28;20061;-49
2021/12/31 07:47:06;;;;;;;4.95;1.75;;;10.80;99.90;;;;;;5013644;28;20053;-51
2021/12/31 07:49:31;;;;;;;3.45;1.10;;;10.80;99.90;;;;;;5014873;28;20036;-51
2021/12/31 07:51:57;;;;;;;2.83;1.50;;;10.90;99.90;;;;;;5014012;28;20124;-50
2021/12/31 07:54:23;;;;;;;3.63;2.08;;;10.90;99.90;;;;;;5014827;28;20022;-53
2021/12/31 07:56:48;;;;;;;4.85;1.23;;;11.00;99.90;;;;;;5014109;28;20030;-51
2021/12/31 07:59:14;;;;;;;2.83;0.80;;;11.50;99.90;;;;;;5013437;28;20026;-52
2021/12/31 08:01:40;;;;;;;2.92;0.95;;;12.20;99.90;;;;;;5013406;28;20053;-51
2021/12/31 08:04:05;;;;;;;3.63;0.98;;;12.90;99.90;;;;;;5014699;28;20085;-51
2021/12/31 08:06:31;;;;;;;4.07;2.60;;;13.50;99.90;;;;;;5013676;28;20022;-49
2021/12/31 08:08:56;;;;;;;10.75;5.22;;;14.20;99.90;;;;;;5014495;28;20030;-53
2021/12/31 08:11:22;;;;;;;2.55;1.10;;;14.70;99.90;;;;;;5014535;28;20069;-54
2021/12/31 08:13:48;;;;;;;3.20;1.20;;;15.30;99.90;;;;;;5013265;28;20037;-54
2021/12/31 08:16:14;;;;;;;2.05;1.30;;;15.70;99.90;;;;;;5013040;28;20503;-55
2021/12/31 08:18:39;;;;;;;3.80;1.23;;;16.10;99.90;;;;;;5014407;28;20026;-53
2021/12/31 08:21:07;;;;;;;4.40;1.50;;;16.50;99.90;;;;;;5013298;28;20022;-51
2021/12/31 08:23:32;;;;;;;2.60;1.23;;;16.80;99.90;;;;;;5014393;28;20370;-50
2021/12/31 08:26:00;;;;;;;4.88;1.00;;;17.20;99.90;;;;;;5012951;28;20033;-53
2021/12/31 08:28:25;;;;;;;1.52;0.77;;;17.50;99.90;;;;;;5013111;28;20026;-50
2021/12/31 08:30:51;;;;;;;3.03;0.85;;;17.80;99.90;;;;;;5014260;28;20033;-50
2021/12/31 08:33:16;;;;;;;6.35;2.13;;;18.00;99.90;;;;;;5014251;28;20030;-51
2021/12/31 08:35:42;;;;;;;2.42;0.95;;;18.30;99.90;;;;;;5014417;28;20061;-51
2021/12/31 08:38:08;;;;;;;3.90;1.75;;;18.60;99.90;;;;;;5012705;28;20030;-48
2021/12/31 08:40:33;;;;;;;3.75;2.13;;;19.00;99.90;;;;;;5012822;28;20061;-49
2021/12/31 08:42:59;;;;;;;3.53;0.98;;;19.10;99.90;;;;;;5014301;28;20025;-47
2021/12/31 08:45:29;;;;;;;4.38;1.73;;;19.40;99.90;;;;;;5013971;28;20028;-51
2021/12/31 08:47:56;;;;;;;3.75;1.08;;;19.80;99.90;;;;;;5012700;28;20026;-48
2021/12/31 08:50:22;;;;;;;3.75;1.15;;;20.30;99.90;;;;;;5013860;28;20022;-49
2021/12/31 08:52:47;;;;;;;7.47;2.83;;;20.70;99.90;;;;;;5012628;28;20059;-48
2021/12/31 08:55:13;;;;;;;1.92;1.30;;;21.30;99.90;;;;;;5012721;28;20069;-50
2021/12/31 08:57:39;;;;;;;2.42;1.10;;;21.60;99.90;;;;;;5012532;28;20029;-50
2021/12/31 09:00:06;;;;;;;2.42;0.90;;;22.00;99.90;;;;;;5012981;28;20022;-48
2021/12/31 09:02:31;;;;;;;3.72;1.50;;;22.50;99.90;;;;;;5012542;28;20025;-48
2021/12/31 09:04:57;;;;;;;8.82;3.47;;;22.60;99.90;;;;;;5013389;28;20022;-48
2021/12/31 09:07:23;;;;;;;4.68;1.05;;;22.50;99.90;;;;;;5027767;28;20021;-49
2021/12/31 09:09:48;;;;;;;3.17;1.55;;;22.70;99.90;;;;;;5033374;28;20025;-50
2021/12/31 09:12:14;;;;;;;2.70;1.23;;;22.70;99.90;;;;;;5032395;28;20072;-54
2021/12/31 09:14:39;;;;;;;2.50;1.00;;;22.70;99.90;;;;;;5032124;28;20028;-48
2021/12/31 09:17:05;;;;;;;0.82;0.80;;;23.20;99.90;;;;;;5032283;28;20120;-50
2021/12/31 09:19:31;;;;;;;4.95;1.20;;;23.90;99.90;;;;;;5033364;28;20029;-49
2021/12/31 09:21:57;;;;;;;3.67;2.85;;;23.70;99.90;;;;;;5033542;28;20112;-48
2021/12/31 09:24:23;;;;;;;3.83;1.20;;;23.90;99.90;;;;;;5032071;28;20026;-50
2021/12/31 09:26:49;;;;;;;7.65;3.63;;;23.90;99.90;;;;;;5033416;28;20120;-49
2021/12/31 09:29:18;;;;;;;2.92;1.30;;;23.80;99.90;;;;;;5031932;28;20112;-49
2021/12/31 09:31:44;;;;;;;4.78;0.65;;;24.10;99.90;;;;;;5032003;28;20025;-48
2021/12/31 09:34:10;;;;;;;2.00;0.70;;;24.00;99.90;;;;;;5032196;28;20025;-47
2021/12/31 09:36:43;;;;;;;1.65;0.82;;;23.70;99.90;;;;;;5031799;28;20029;-47
2021/12/31 09:39:08;;;;;;;2.38;0.70;;;23.40;99.90;;;;;;5032253;28;20036;-47
2021/12/31 09:41:34;;;;;;;1.75;0.82;;;22.90;99.90;;;;;;5031870;28;20030;-49
2021/12/31 09:44:00;;;;;;;1.50;0.60;;;22.50;99.90;;;;;;5031865;28;20542;-48
2021/12/31 09:46:26;;;;;;;1.23;0.80;;;22.40;99.90;;;;;;5033384;28;20029;-49
2021/12/31 09:48:52;;;;;;;0.77;0.60;;;22.00;99.90;;;;;;5031655;28;20075;-49
2021/12/31 09:51:18;;;;;;;1.85;0.70;;;21.70;99.90;;;;;;5032262;28;20045;-48
2021/12/31 09:53:44;;;;;;;1.73;0.75;;;21.60;99.90;;;;;;5031731;28;20028;-48
2021/12/31 09:56:10;;;;;;;4.68;0.75;;;21.00;99.90;;;;;;5031647;28;20025;-47
2021/12/31 09:58:37;;;;;;;0.68;0.50;;;20.70;99.90;;;;;;5033043;28;20096;-47
2021/12/31 10:01:04;;;;;;;1.00;0.60;;;20.30;99.90;;;;;;5032849;28;20022;-47
2021/12/31 10:03:32;;;;;;;3.10;2.08;;;19.90;99.90;;;;;;5032190;28;20032;-49
2021/12/31 10:06:00;;;;;;;3.13;1.40;;;19.60;99.90;;;;;;5031657;28;20079;-48
2021/12/31 10:08:31;;;;;;;0.77;0.65;;;19.30;99.90;;;;;;5032817;28;20032;-48
2021/12/31 10:11:04;;;;;;;1.13;0.75;;;19.20;99.90;;;;;;5032445;28;20022;-48
2021/12/31 10:13:30;;;;;;;0.98;0.60;;;19.20;99.90;;;;;;5032821;28;20034;-47
2021/12/31 10:19:20;;;;;;;1.27;0.52;;;18.90;99.90;;;;;;5036593;28;20021;-47
2021/12/31 10:21:51;;;;;;;3.67;1.08;;;19.00;99.90;;;;;;5036688;28;20028;-47
2021/12/31 10:24:25;;;;;;;2.50;0.65;;;19.00;99.90;;;;;;5035219;28;20024;-50
2021/12/31 10:26:56;;;;;;;1.98;0.65;;;18.80;99.90;;;;;;5035297;28;20025;-47
2021/12/31 10:29:23;;;;;;;5.28;1.40;;;18.60;99.90;;;;;;5036199;28;20021;-48
2021/12/31 10:31:51;;;;;;;1.40;1.10;;;18.60;99.90;;;;;;5025984;28;20021;-52
2021/12/31 10:34:36;;;;;;;0.85;0.60;;;18.50;99.90;;;;;;5015008;28;20028;-49
2021/12/31 10:37:24;;;;;;;0.90;0.60;;;18.50;99.90;;;;;;5014996;28;20117;-48
2021/12/31 10:39:59;;;;;;;2.63;0.80;;;18.40;99.90;;;;;;5016234;28;20018;-47
2021/12/31 10:42:29;;;;;;;0.98;0.40;;;18.30;99.90;;;;;;5014829;28;20026;-49
2021/12/31 10:44:57;;;;;;;4.25;1.20;;;18.20;99.90;;;;;;5016162;28;20484;-47
2021/12/31 10:47:43;;;;;;;1.90;1.02;;;18.10;99.90;;;;;;5014652;28;20137;-49
2021/12/31 10:50:11;;;;;;;1.95;0.75;;;17.90;99.90;;;;;;5014924;28;20098;-50
2021/12/31 10:52:52;;;;;;;0.70;0.70;;;17.80;99.90;;;;;;5016362;28;20109;-53
2021/12/31 10:57:50;;;;;;;1.80;0.60;;;17.70;99.90;;;;;;5015988;28;20037;-49
2021/12/31 11:00:18;;;;;;;0.88;0.50;;;17.60;99.90;;;;;;5014579;28;20568;-49
2021/12/31 11:02:44;;;;;;;3.83;1.60;;;17.60;99.90;;;;;;5014765;28;20392;-52
2021/12/31 11:05:11;;;;;;;1.27;0.80;;;17.50;99.90;;;;;;5014769;28;20022;-50
2021/12/31 11:07:39;;;;;;;1.98;0.40;;;17.30;99.90;;;;;;5014233;28;20019;-53
2021/12/31 11:10:06;;;;;;;0.65;0.45;;;17.20;99.90;;;;;;5014736;28;20018;-50
2021/12/31 11:12:34;;;;;;;2.05;0.73;;;17.30;99.90;;;;;;5014411;28;20022;-52
2021/12/31 11:15:05;;;;;;;0.98;0.80;;;17.10;99.90;;;;;;5014749;28;20026;-53
2021/12/31 11:17:31;;;;;;;0.95;0.60;;;17.00;99.90;;;;;;5015887;28;20021;-49
2021/12/31 11:19:58;;;;;;;3.22;1.40;;;17.00;99.90;;;;;;5014312;28;20026;-51
2021/12/31 11:25:51;;;;;;;1.73;0.70;;;17.10;99.90;;;;;;5015869;28;20077;-50
2021/12/31 11:28:32;;;;;;;0.43;0.40;;;17.10;99.90;;;;;;5014724;28;20077;-52
2021/12/31 11:31:20;;;;;;;3.28;0.60;;;17.00;99.90;;;;;;5015403;28;20608;-50
2021/12/31 11:33:55;;;;;;;1.40;0.70;;;17.10;99.90;;;;;;5015228;28;20026;-54
2021/12/31 11:37:02;;;;;;;1.08;0.60;;;17.00;99.90;;;;;;5015196;28;20045;-54
2021/12/31 11:39:30;;;;;;;0.98;0.75;;;17.00;99.90;;;;;;5015069;28;20026;-51
2021/12/31 11:41:59;;;;;;;1.58;0.80;;;17.00;99.90;;;;;;5013844;28;20420;-52
2021/12/31 11:44:26;;;;;;;2.47;0.60;;;17.00;99.90;;;;;;5013582;28;20029;-55
2021/12/31 11:47:14;;;;;;;2.40;0.70;;;17.00;99.90;;;;;;5013097;28;20022;-53
2021/12/31 11:49:40;;;;;;;1.30;0.77;;;17.00;99.90;;;;;;5012717;28;20029;-54
2021/12/31 11:52:09;;;;;;;3.55;1.10;;;17.00;99.90;;;;;;5014555;28;20025;-52
2021/12/31 11:54:37;;;;;;;8.27;6.30;;;17.00;99.90;;;;;;5014483;28;20385;-52
2021/12/31 11:57:05;;;;;;;2.15;1.15;;;16.90;99.90;;;;;;5014387;28;20104;-49
2021/12/31 11:59:33;;;;;;;3.53;0.77;;;17.00;99.90;;;;;;5013804;28;20366;-49
2021/12/31 12:02:13;;;;;;;0.82;0.80;;;16.90;99.90;;;;;;5014771;28;20048;-49
2021/12/31 12:04:40;;;;;;;1.10;0.85;;;16.80;99.90;;;;;;5014740;28;20026;-49
2021/12/31 12:07:34;;;;;;;4.18;1.90;;;16.70;99.90;;;;;;5013447;28;20100;-50
2021/12/31 12:10:00;;;;;;;3.55;2.17;;;16.70;99.90;;;;;;5013355;28;20093;-50
2021/12/31 12:12:31;;;;;;;1.08;0.73;;;16.70;99.90;;;;;;5014539;28;20101;-55
2021/12/31 12:15:21;;;;;;;0.60;0.50;;;16.70;99.90;;;;;;5013821;28;20057;-52
2021/12/31 12:17:47;;;;;;;5.25;0.77;;;16.70;99.90;;;;;;5014345;28;20022;-51
2021/12/31 12:20:18;;;;;;;0.60;0.40;;;16.80;99.90;;;;;;5014660;28;20021;-55
2021/12/31 12:22:51;;;;;;;;;;;16.70;99.90;;;;;;5015389;28;20439;-51
2021/12/31 12:25:23;;;;;;;2.95;0.77;;;16.70;99.90;;;;;;5014429;28;19905;-49
2021/12/31 12:28:02;;;;;;;0.60;0.50;;;16.70;99.90;;;;;;5014258;28;20481;-53
2021/12/31 12:30:28;;;;;;;4.97;2.70;;;16.70;99.90;;;;;;5014161;28;20052;-57
2021/12/31 12:35:42;;;;;;;1.75;1.20;;;16.70;99.90;;;;;;5014507;28;20026;-53
2021/12/31 12:38:22;;;;;;;4.65;1.98;;;16.70;99.90;;;;;;5012943;28;20543;-55
2021/12/31 12:40:58;;;;;;;2.65;0.90;;;16.70;99.90;;;;;;5012811;28;20353;-49
2021/12/31 12:43:33;;;;;;;1.95;0.70;;;16.60;99.90;;;;;;5012934;28;20026;-54
2021/12/31 12:46:01;;;;;;;0.60;0.60;;;16.40;99.90;;;;;;5013672;28;20030;-50
2021/12/31 12:48:38;;;;;;;0.55;0.32;;;16.50;99.90;;;;;;5013211;28;20034;-52
2021/12/31 12:51:07;;;;;;;1.48;0.80;;;16.40;99.90;;;;;;5012544;28;20030;-50
2021/12/31 12:53:36;;;;;;;2.35;2.00;;;16.30;99.90;;;;;;5012733;28;20050;-50
2021/12/31 12:56:07;;;;;;;5.95;2.30;;;16.20;99.90;;;;;;5013816;28;20105;-50
2021/12/31 12:58:58;;;;;;;3.70;1.83;;;16.10;99.90;;;;;;5014230;28;20029;-50
2021/12/31 13:01:35;;;;;;;6.15;1.40;;;16.00;99.90;;;;;;4992762;28;20120;-50
2021/12/31 13:04:01;;;;;;;8.32;3.60;;;15.90;99.90;;;;;;5013412;28;20029;-50
2021/12/31 13:06:27;;;;;;;3.38;1.42;;;15.80;99.90;;;;;;5012743;28;20033;-57
2021/12/31 13:09:18;;;;;;;5.78;1.50;;;15.70;99.90;;;;;;5012726;28;20030;-50
2021/12/31 13:11:47;;;;;;;4.82;1.85;;;15.60;99.90;;;;;;5012496;28;20065;-51
2021/12/31 13:14:12;;;;;;;4.10;1.48;;;15.60;99.90;;;;;;5012436;28;20068;-51